sensor_id;sensor_type;location;lat;lon;timestamp;pressure;altitude;pressure_sealevel;temperature;humidity
46710;BME280;32442;51.514;-0.178;2023-02-02T00:02:07;102336.91;;;22.15;37.57
46710;BME280;32442;51.514;-0.178;2023-02-02T00:04:34;102337.75;;;22.15;37.39
46710;BME280;32442;51.514;-0.178;2023-02-02T00:07:02;102338.88;;;22.14;37.62
46710;BME280;32442;51.514;-0.178;2023-02-02T00:09:31;102342.53;;;22.20;38.10
46710;BME280;32442;51.514;-0.178;2023-02-02T00:11:58;102344.78;;;22.18;37.90
46710;BME280;32442;51.514;-0.178;2023-02-02T00:14:27;102352.94;;;22.20;38.04
46710;BME280;32442;51.514;-0.178;2023-02-02T00:16:54;102348.72;;;22.17;37.75
46710;BME280;32442;51.514;-0.178;2023-02-02T00:19:22;102347.88;;;22.16;37.65
46710;BME280;32442;51.514;-0.178;2023-02-02T00:21:52;102349.28;;;22.14;37.58
46710;BME280;32442;51.514;-0.178;2023-02-02T00:24:20;102349.28;;;22.14;37.84
46710;BME280;32442;51.514;-0.178;2023-02-02T00:26:48;102359.69;;;22.13;37.98
46710;BME280;32442;51.514;-0.178;2023-02-02T00:29:18;102360.53;;;22.14;38.30
46710;BME280;32442;51.514;-0.178;2023-02-02T00:31:45;102358.31;;;22.11;37.68
46710;BME280;32442;51.514;-0.178;2023-02-02T00:34:12;102355.50;;;22.11;37.93
46710;BME280;32442;51.514;-0.178;2023-02-02T00:36:39;102367.88;;;22.10;38.11
46710;BME280;32442;51.514;-0.178;2023-02-02T00:39:07;102360.88;;;22.07;37.89
46710;BME280;32442;51.514;-0.178;2023-02-02T00:41:35;102340.31;;;22.07;38.28
46710;BME280;32442;51.514;-0.178;2023-02-02T00:44:02;102354.94;;;22.09;38.73
46710;BME280;32442;51.514;-0.178;2023-02-02T00:46:32;102344.25;;;22.06;38.64
46710;BME280;32442;51.514;-0.178;2023-02-02T00:49:01;102347.59;;;22.08;38.76
46710;BME280;32442;51.514;-0.178;2023-02-02T00:51:27;102341.44;;;22.01;38.90
46710;BME280;32442;51.514;-0.178;2023-02-02T00:53:54;102343.66;;;22.04;38.87
46710;BME280;32442;51.514;-0.178;2023-02-02T00:56:21;102344.84;;;21.98;39.12
46710;BME280;32442;51.514;-0.178;2023-02-02T00:58:48;102341.44;;;21.96;39.11
46710;BME280;32442;51.514;-0.178;2023-02-02T01:01:16;102343.41;;;21.95;39.01
46710;BME280;32442;51.514;-0.178;2023-02-02T01:03:43;102340.91;;;21.94;39.36
46710;BME280;32442;51.514;-0.178;2023-02-02T01:06:10;102338.59;;;21.91;39.67
46710;BME280;32442;51.514;-0.178;2023-02-02T01:08:37;102337.22;;;21.88;39.46
46710;BME280;32442;51.514;-0.178;2023-02-02T01:11:05;102332.72;;;21.87;39.91
46710;BME280;32442;51.514;-0.178;2023-02-02T01:13:32;102325.69;;;21.85;39.70
46710;BME280;32442;51.514;-0.178;2023-02-02T01:16:00;102322.31;;;21.83;39.91
46710;BME280;32442;51.514;-0.178;2023-02-02T01:18:28;102319.50;;;21.83;39.78
46710;BME280;32442;51.514;-0.178;2023-02-02T01:23:24;102325.69;;;21.80;40.03
46710;BME280;32442;51.514;-0.178;2023-02-02T01:25:52;102332.44;;;21.79;40.16
46710;BME280;32442;51.514;-0.178;2023-02-02T01:28:19;102335.53;;;21.77;40.01
46710;BME280;32442;51.514;-0.178;2023-02-02T01:30:46;102329.34;;;21.75;40.05
46710;BME280;32442;51.514;-0.178;2023-02-02T01:33:15;102344.53;;;21.74;40.22
46710;BME280;32442;51.514;-0.178;2023-02-02T01:38:12;102334.72;;;21.66;40.69
46710;BME280;32442;51.514;-0.178;2023-02-02T01:43:14;102340.63;;;21.65;40.57
46710;BME280;32442;51.514;-0.178;2023-02-02T01:45:47;102339.75;;;21.64;40.15
46710;BME280;32442;51.514;-0.178;2023-02-02T01:48:14;102327.13;;;21.57;40.25
46710;BME280;32442;51.514;-0.178;2023-02-02T01:50:42;102319.22;;;21.54;40.25
46710;BME280;32442;51.514;-0.178;2023-02-02T01:53:09;102324.84;;;21.54;40.26
46710;BME280;32442;51.514;-0.178;2023-02-02T01:55:37;102324.59;;;21.50;40.04
46710;BME280;32442;51.514;-0.178;2023-02-02T01:58:07;102333.59;;;21.47;39.96
46710;BME280;32442;51.514;-0.178;2023-02-02T02:00:36;102336.69;;;21.46;40.12
46710;BME280;32442;51.514;-0.178;2023-02-02T02:03:06;102340.31;;;21.41;40.11
46710;BME280;32442;51.514;-0.178;2023-02-02T02:05:35;102340.31;;;21.41;40.32
46710;BME280;32442;51.514;-0.178;2023-02-02T02:08:04;102346.25;;;21.35;40.17
46710;BME280;32442;51.514;-0.178;2023-02-02T02:10:33;102344.53;;;21.28;40.22
46710;BME280;32442;51.514;-0.178;2023-02-02T02:13:00;102340.31;;;21.31;40.32
46710;BME280;32442;51.514;-0.178;2023-02-02T02:15:27;102335.84;;;21.25;39.93
46710;BME280;32442;51.514;-0.178;2023-02-02T02:18:07;102339.75;;;21.24;39.95
46710;BME280;32442;51.514;-0.178;2023-02-02T02:33:14;102342.25;;;21.10;40.29
46710;BME280;32442;51.514;-0.178;2023-02-02T02:38:15;102345.03;;;21.00;40.41
46710;BME280;32442;51.514;-0.178;2023-02-02T02:45:43;102341.66;;;20.98;40.13
46710;BME280;32442;51.514;-0.178;2023-02-02T02:48:10;102346.69;;;20.96;40.51
46710;BME280;32442;51.514;-0.178;2023-02-02T02:50:37;102344.44;;;20.93;40.25
46710;BME280;32442;51.514;-0.178;2023-02-02T02:53:05;102347.53;;;20.92;40.51
46710;BME280;32442;51.514;-0.178;2023-02-02T02:58:06;102347.25;;;20.88;40.39
46710;BME280;32442;51.514;-0.178;2023-02-02T03:10:33;102326.44;;;20.79;41.09
46710;BME280;32442;51.514;-0.178;2023-02-02T03:13:03;102322.19;;;20.76;40.88
46710;BME280;32442;51.514;-0.178;2023-02-02T03:15:32;102335.97;;;20.78;41.18
46710;BME280;32442;51.514;-0.178;2023-02-02T03:17:59;102343.56;;;20.77;41.44
46710;BME280;32442;51.514;-0.178;2023-02-02T03:20:26;102352.25;;;20.76;41.53
46710;BME280;32442;51.514;-0.178;2023-02-02T03:22:53;102339.63;;;20.73;41.27
46710;BME280;32442;51.514;-0.178;2023-02-02T03:25:20;102343.84;;;20.71;41.56
46710;BME280;32442;51.514;-0.178;2023-02-02T03:27:49;102344.09;;;20.69;41.35
46710;BME280;32442;51.514;-0.178;2023-02-02T03:30:17;102347.47;;;20.66;41.62
46710;BME280;32442;51.514;-0.178;2023-02-02T03:32:45;102350.81;;;20.63;41.59
46710;BME280;32442;51.514;-0.178;2023-02-02T03:35:12;102347.72;;;20.65;41.22
46710;BME280;32442;51.514;-0.178;2023-02-02T03:37:39;102341.81;;;20.61;41.72
46710;BME280;32442;51.514;-0.178;2023-02-02T03:40:06;102346.88;;;20.59;41.64
46710;BME280;32442;51.514;-0.178;2023-02-02T03:42:33;102343.50;;;20.57;41.46
46710;BME280;32442;51.514;-0.178;2023-02-02T03:45:00;102342.06;;;20.55;41.64
46710;BME280;32442;51.514;-0.178;2023-02-02T03:47:28;102341.81;;;20.56;42.07
46710;BME280;32442;51.514;-0.178;2023-02-02T03:49:55;102352.75;;;20.53;41.94
46710;BME280;32442;51.514;-0.178;2023-02-02T03:52:22;102347.97;;;20.53;41.67
46710;BME280;32442;51.514;-0.178;2023-02-02T03:54:50;102345.16;;;20.48;41.77
46710;BME280;32442;51.514;-0.178;2023-02-02T03:57:17;102339.78;;;20.47;41.70
46710;BME280;32442;51.514;-0.178;2023-02-02T03:59:45;102342.88;;;20.45;42.13
46710;BME280;32442;51.514;-0.178;2023-02-02T04:02:11;102356.34;;;20.43;42.00
46710;BME280;32442;51.514;-0.178;2023-02-02T04:04:38;102343.69;;;20.40;42.00
46710;BME280;32442;51.514;-0.178;2023-02-02T04:07:05;102353.25;;;20.39;42.11
46710;BME280;32442;51.514;-0.178;2023-02-02T04:09:32;102359.13;;;20.38;41.89
46710;BME280;32442;51.514;-0.178;2023-02-02T04:11:59;102349.00;;;20.37;42.28
46710;BME280;32442;51.514;-0.178;2023-02-02T04:14:26;102355.72;;;20.36;41.82
46710;BME280;32442;51.514;-0.178;2023-02-02T04:16:53;102355.72;;;20.36;41.82
46710;BME280;32442;51.514;-0.178;2023-02-02T04:19:20;102350.69;;;20.33;41.87
46710;BME280;32442;51.514;-0.178;2023-02-02T04:21:47;102356.28;;;20.33;41.77
46710;BME280;32442;51.514;-0.178;2023-02-02T04:24:14;102353.75;;;20.31;42.11
46710;BME280;32442;51.514;-0.178;2023-02-02T04:26:41;102360.72;;;20.29;41.78
46710;BME280;32442;51.514;-0.178;2023-02-02T04:29:08;102368.00;;;20.25;41.91
46710;BME280;32442;51.514;-0.178;2023-02-02T04:31:35;102355.09;;;20.24;42.12
46710;BME280;32442;51.514;-0.178;2023-02-02T04:34:02;102366.88;;;20.21;41.76
46710;BME280;32442;51.514;-0.178;2023-02-02T04:36:29;102367.13;;;20.19;41.81
46710;BME280;32442;51.514;-0.178;2023-02-02T04:38:56;102365.16;;;20.20;41.88
46710;BME280;32442;51.514;-0.178;2023-02-02T04:41:23;102353.66;;;20.16;41.77
46710;BME280;32442;51.514;-0.178;2023-02-02T04:43:50;102352.50;;;20.17;41.65
46710;BME280;32442;51.514;-0.178;2023-02-02T04:46:17;102341.28;;;20.12;42.08
46710;BME280;32442;51.514;-0.178;2023-02-02T04:48:46;102345.47;;;20.10;41.81
46710;BME280;32442;51.514;-0.178;2023-02-02T04:51:13;102343.75;;;20.09;41.90
46710;BME280;32442;51.514;-0.178;2023-02-02T04:53:40;102337.63;;;20.12;41.60
46710;BME280;32442;51.514;-0.178;2023-02-02T04:56:10;102353.03;;;20.09;41.75
46710;BME280;32442;51.514;-0.178;2023-02-02T04:58:37;102351.03;;;20.05;41.65
46710;BME280;32442;51.514;-0.178;2023-02-02T05:03:35;102342.63;;;20.05;41.90
46710;BME280;32442;51.514;-0.178;2023-02-02T05:06:02;102351.59;;;20.02;41.73
46710;BME280;32442;51.514;-0.178;2023-02-02T05:08:29;102350.75;;;20.01;42.02
46710;BME280;32442;51.514;-0.178;2023-02-02T05:10:57;102347.63;;;19.97;42.01
46710;BME280;32442;51.514;-0.178;2023-02-02T05:13:23;102361.66;;;19.97;41.79
46710;BME280;32442;51.514;-0.178;2023-02-02T05:15:50;102363.88;;;19.95;42.02
46710;BME280;32442;51.514;-0.178;2023-02-02T05:18:18;102363.59;;;19.92;41.95
46710;BME280;32442;51.514;-0.178;2023-02-02T05:20:45;102363.03;;;19.95;42.30
46710;BME280;32442;51.514;-0.178;2023-02-02T05:23:12;102370.59;;;19.94;42.19
46710;BME280;32442;51.514;-0.178;2023-02-02T05:25:39;102359.94;;;19.91;42.19
46710;BME280;32442;51.514;-0.178;2023-02-02T05:28:06;102362.75;;;19.91;42.32
46710;BME280;32442;51.514;-0.178;2023-02-02T05:30:33;102358.81;;;19.92;42.16
46710;BME280;32442;51.514;-0.178;2023-02-02T05:33:00;102353.47;;;19.91;42.49
46710;BME280;32442;51.514;-0.178;2023-02-02T05:35:28;102349.81;;;19.90;42.05
46710;BME280;32442;51.514;-0.178;2023-02-02T05:37:55;102354.59;;;19.90;42.27
46710;BME280;32442;51.514;-0.178;2023-02-02T05:40:24;102356.81;;;19.88;42.32
46710;BME280;32442;51.514;-0.178;2023-02-02T05:42:51;102355.38;;;19.85;42.32
46710;BME280;32442;51.514;-0.178;2023-02-02T05:45:18;102358.44;;;19.79;42.40
46710;BME280;32442;51.514;-0.178;2023-02-02T05:47:45;102356.50;;;19.79;42.28
46710;BME280;32442;51.514;-0.178;2023-02-02T05:50:12;102355.69;;;19.84;42.67
46710;BME280;32442;51.514;-0.178;2023-02-02T05:52:39;102363.78;;;19.80;42.60
46710;BME280;32442;51.514;-0.178;2023-02-02T05:55:08;102361.28;;;19.84;42.37
46710;BME280;32442;51.514;-0.178;2023-02-02T05:57:35;102369.69;;;19.84;42.22
46710;BME280;32442;51.514;-0.178;2023-02-02T06:00:02;102369.16;;;19.87;42.18
46710;BME280;32442;51.514;-0.178;2023-02-02T06:02:29;102375.34;;;19.89;43.04
46710;BME280;32442;51.514;-0.178;2023-02-02T06:04:56;102375.06;;;19.90;42.96
46710;BME280;32442;51.514;-0.178;2023-02-02T06:07:23;102368.13;;;19.98;42.98
46710;BME280;32442;51.514;-0.178;2023-02-02T06:09:50;102381.06;;;20.04;43.02
46710;BME280;32442;51.514;-0.178;2023-02-02T06:12:17;102377.19;;;20.10;43.05
46710;BME280;32442;51.514;-0.178;2023-02-02T06:14:44;102376.38;;;20.15;42.86
46710;BME280;32442;51.514;-0.178;2023-02-02T06:17:11;102369.69;;;20.21;42.62
46710;BME280;32442;51.514;-0.178;2023-02-02T06:19:38;102379.78;;;20.27;42.78
46710;BME280;32442;51.514;-0.178;2023-02-02T06:22:05;102374.25;;;20.32;42.69
46710;BME280;32442;51.514;-0.178;2023-02-02T06:24:33;102375.38;;;20.36;42.22
46710;BME280;32442;51.514;-0.178;2023-02-02T06:27:00;102371.50;;;20.42;42.30
46710;BME280;32442;51.514;-0.178;2023-02-02T06:29:27;102367.88;;;20.47;42.30
46710;BME280;32442;51.514;-0.178;2023-02-02T06:31:54;102367.91;;;20.52;42.36
46710;BME280;32442;51.514;-0.178;2023-02-02T06:34:21;102378.31;;;20.56;42.14
46710;BME280;32442;51.514;-0.178;2023-02-02T06:36:49;102384.81;;;20.62;41.89
46710;BME280;32442;51.514;-0.178;2023-02-02T06:39:16;102381.16;;;20.66;41.95
46710;BME280;32442;51.514;-0.178;2023-02-02T06:41:43;102389.03;;;20.69;41.69
46710;BME280;32442;51.514;-0.178;2023-02-02T06:44:12;102389.06;;;20.74;41.38
46710;BME280;32442;51.514;-0.178;2023-02-02T06:46:41;102389.63;;;20.76;41.29
46710;BME280;32442;51.514;-0.178;2023-02-02T06:49:08;102385.13;;;20.80;41.29
46710;BME280;32442;51.514;-0.178;2023-02-02T06:51:35;102386.28;;;20.84;41.45
46710;BME280;32442;51.514;-0.178;2023-02-02T06:54:02;102393.91;;;20.89;41.38
46710;BME280;32442;51.514;-0.178;2023-02-02T06:56:29;102397.25;;;20.91;40.93
46710;BME280;32442;51.514;-0.178;2023-02-02T06:58:57;102401.19;;;20.95;41.00
46710;BME280;32442;51.514;-0.178;2023-02-02T07:01:23;102400.94;;;20.97;41.06
46710;BME280;32442;51.514;-0.178;2023-02-02T07:03:50;102399.53;;;20.99;41.14
46710;BME280;32442;51.514;-0.178;2023-02-02T07:06:19;102393.91;;;20.99;40.86
46710;BME280;32442;51.514;-0.178;2023-02-02T07:08:47;102398.16;;;21.02;41.15
46710;BME280;32442;51.514;-0.178;2023-02-02T07:11:28;102394.22;;;21.03;41.21
46710;BME280;32442;51.514;-0.178;2023-02-02T07:13:55;102392.22;;;21.03;41.14
46710;BME280;32442;51.514;-0.178;2023-02-02T07:16:22;102390.56;;;21.02;40.62
46710;BME280;32442;51.514;-0.178;2023-02-02T07:18:49;102395.03;;;21.03;40.95
46710;BME280;32442;51.514;-0.178;2023-02-02T07:21:17;102397.03;;;21.03;40.73
46710;BME280;32442;51.514;-0.178;2023-02-02T07:23:45;102393.06;;;21.04;41.80
46710;BME280;32442;51.514;-0.178;2023-02-02T07:26:12;102393.06;;;21.04;40.69
46710;BME280;32442;51.514;-0.178;2023-02-02T07:28:40;102399.84;;;21.03;39.99
46710;BME280;32442;51.514;-0.178;2023-02-02T07:33:39;102398.41;;;21.00;39.13
46710;BME280;32442;51.514;-0.178;2023-02-02T07:36:07;102402.06;;;21.01;38.96
46710;BME280;32442;51.514;-0.178;2023-02-02T07:38:34;102393.06;;;20.99;38.62
46710;BME280;32442;51.514;-0.178;2023-02-02T07:41:02;102394.19;;;20.98;38.88
46710;BME280;32442;51.514;-0.178;2023-02-02T07:43:30;102407.66;;;20.96;38.90
46710;BME280;32442;51.514;-0.178;2023-02-02T07:45:58;102408.22;;;20.93;38.87
46710;BME280;32442;51.514;-0.178;2023-02-02T07:48:28;102421.66;;;20.75;38.07
46710;BME280;32442;51.514;-0.178;2023-02-02T07:50:57;102417.63;;;20.56;38.07
46710;BME280;32442;51.514;-0.178;2023-02-02T07:53:25;102422.94;;;20.53;38.82
46710;BME280;32442;51.514;-0.178;2023-02-02T07:55:52;102420.13;;;20.53;38.89
46710;BME280;32442;51.514;-0.178;2023-02-02T07:58:19;102410.56;;;20.54;38.64
46710;BME280;32442;51.514;-0.178;2023-02-02T08:00:46;102414.22;;;20.54;39.00
46710;BME280;32442;51.514;-0.178;2023-02-02T08:03:13;102421.25;;;20.52;38.68
46710;BME280;32442;51.514;-0.178;2023-02-02T08:05:40;102413.09;;;20.50;38.52
46710;BME280;32442;51.514;-0.178;2023-02-02T08:08:07;102424.31;;;20.50;38.71
46710;BME280;32442;51.514;-0.178;2023-02-02T08:10:35;102424.88;;;20.47;38.75
46710;BME280;32442;51.514;-0.178;2023-02-02T08:13:02;102430.19;;;20.44;39.00
46710;BME280;32442;51.514;-0.178;2023-02-02T08:15:29;102436.31;;;20.40;39.01
46710;BME280;32442;51.514;-0.178;2023-02-02T08:17:56;102435.78;;;20.38;38.87
46710;BME280;32442;51.514;-0.178;2023-02-02T08:20:25;102445.31;;;20.37;38.99
46710;BME280;32442;51.514;-0.178;2023-02-02T08:22:52;102441.13;;;20.45;38.75
46710;BME280;32442;51.514;-0.178;2023-02-02T08:25:19;102446.22;;;20.48;39.06
46710;BME280;32442;51.514;-0.178;2023-02-02T08:27:46;102450.44;;;20.51;39.27
46710;BME280;32442;51.514;-0.178;2023-02-02T08:30:13;102450.44;;;20.51;38.70
46710;BME280;32442;51.514;-0.178;2023-02-02T08:32:40;102454.34;;;20.50;38.81
46710;BME280;32442;51.514;-0.178;2023-02-02T08:35:07;102465.31;;;20.51;39.03
46710;BME280;32442;51.514;-0.178;2023-02-02T08:37:34;102468.44;;;20.55;39.05
46710;BME280;32442;51.514;-0.178;2023-02-02T08:40:01;102454.41;;;20.60;39.04
46710;BME280;32442;51.514;-0.178;2023-02-02T08:42:29;102463.69;;;20.60;39.04
46710;BME280;32442;51.514;-0.178;2023-02-02T08:44:56;102463.13;;;20.63;38.66
46710;BME280;32442;51.514;-0.178;2023-02-02T08:47:43;102463.13;;;20.63;38.91
46710;BME280;32442;51.514;-0.178;2023-02-02T08:50:10;102468.22;;;20.66;39.02
46710;BME280;32442;51.514;-0.178;2023-02-02T08:52:38;102469.09;;;20.67;38.79
46710;BME280;32442;51.514;-0.178;2023-02-02T08:55:05;102461.75;;;20.66;39.10
46710;BME280;32442;51.514;-0.178;2023-02-02T08:57:32;102469.91;;;20.67;39.03
46710;BME280;32442;51.514;-0.178;2023-02-02T09:00:00;102457.00;;;20.66;39.09
46710;BME280;32442;51.514;-0.178;2023-02-02T09:02:27;102453.91;;;20.68;38.74
46710;BME280;32442;51.514;-0.178;2023-02-02T09:04:54;102459.25;;;20.69;38.70
46710;BME280;32442;51.514;-0.178;2023-02-02T09:07:21;102470.50;;;20.69;38.71
46710;BME280;32442;51.514;-0.178;2023-02-02T09:09:49;102464.28;;;20.67;38.94
46710;BME280;32442;51.514;-0.178;2023-02-02T09:12:18;102467.94;;;20.68;38.86
46710;BME280;32442;51.514;-0.178;2023-02-02T09:14:46;102467.09;;;20.67;39.01
46710;BME280;32442;51.514;-0.178;2023-02-02T09:17:13;102471.59;;;20.68;39.05
46710;BME280;32442;51.514;-0.178;2023-02-02T09:19:40;102464.03;;;20.69;38.91
46710;BME280;32442;51.514;-0.178;2023-02-02T09:22:07;102469.63;;;20.69;38.92
46710;BME280;32442;51.514;-0.178;2023-02-02T09:24:35;102478.06;;;20.69;38.55
46710;BME280;32442;51.514;-0.178;2023-02-02T09:27:01;102484.25;;;20.71;38.63
46710;BME280;32442;51.514;-0.178;2023-02-02T09:29:29;102475.00;;;20.70;38.84
46710;BME280;32442;51.514;-0.178;2023-02-02T09:31:56;102471.59;;;20.68;38.51
46710;BME280;32442;51.514;-0.178;2023-02-02T09:34:23;102481.47;;;20.71;38.58
46710;BME280;32442;51.514;-0.178;2023-02-02T09:36:50;102490.16;;;20.69;38.70
46710;BME280;32442;51.514;-0.178;2023-02-02T09:39:18;102483.94;;;20.67;38.90
46710;BME280;32442;51.514;-0.178;2023-02-02T09:49:15;102498.53;;;20.64;39.11
46710;BME280;32442;51.514;-0.178;2023-02-02T09:51:45;102510.31;;;20.61;38.76
46710;BME280;32442;51.514;-0.178;2023-02-02T09:54:17;102497.66;;;20.59;38.98
46710;BME280;32442;51.514;-0.178;2023-02-02T09:56:47;102505.22;;;20.58;38.78
46710;BME280;32442;51.514;-0.178;2023-02-02T09:59:19;102503.22;;;20.54;39.08
46710;BME280;32442;51.514;-0.178;2023-02-02T10:01:51;102496.81;;;20.53;39.24
46710;BME280;32442;51.514;-0.178;2023-02-02T10:04:24;102496.81;;;20.53;38.81
46710;BME280;32442;51.514;-0.178;2023-02-02T10:06:55;102492.84;;;20.54;39.23
46710;BME280;32442;51.514;-0.178;2023-02-02T10:14:26;102486.38;;;20.49;38.88
46710;BME280;32442;51.514;-0.178;2023-02-02T10:16:53;102499.56;;;20.48;38.92
46710;BME280;32442;51.514;-0.178;2023-02-02T10:19:23;102492.25;;;20.47;39.27
46710;BME280;32442;51.514;-0.178;2023-02-02T10:24:25;102492.25;;;20.47;39.04
46710;BME280;32442;51.514;-0.178;2023-02-02T10:26:55;102502.38;;;20.48;39.28
46710;BME280;32442;51.514;-0.178;2023-02-02T10:34:24;102519.56;;;20.57;39.08
46710;BME280;32442;51.514;-0.178;2023-02-02T10:46:53;102527.53;;;20.75;39.07
46710;BME280;32442;51.514;-0.178;2023-02-02T10:54:28;102529.25;;;20.81;39.02
46710;BME280;32442;51.514;-0.178;2023-02-02T10:57:09;102532.66;;;20.83;39.30
46710;BME280;32442;51.514;-0.178;2023-02-02T10:59:40;102523.66;;;20.86;39.27
46710;BME280;32442;51.514;-0.178;2023-02-02T11:02:10;102527.06;;;20.88;38.81
46710;BME280;32442;51.514;-0.178;2023-02-02T11:04:46;102519.19;;;20.90;38.80
46710;BME280;32442;51.514;-0.178;2023-02-02T11:07:16;102513.31;;;20.92;39.18
46710;BME280;32442;51.514;-0.178;2023-02-02T11:09:46;102508.28;;;20.94;38.78
46710;BME280;32442;51.514;-0.178;2023-02-02T11:14:42;102502.66;;;20.94;38.86
46710;BME280;32442;51.514;-0.178;2023-02-02T11:19:41;102504.91;;;20.97;38.85
46710;BME280;32442;51.514;-0.178;2023-02-02T11:22:09;102503.78;;;20.98;38.80
46710;BME280;32442;51.514;-0.178;2023-02-02T11:24:48;102502.94;;;20.97;38.84
46710;BME280;32442;51.514;-0.178;2023-02-02T11:29:48;102504.91;;;20.97;38.88
46710;BME280;32442;51.514;-0.178;2023-02-02T11:34:43;102494.50;;;20.97;38.73
46710;BME280;32442;51.514;-0.178;2023-02-02T11:37:12;102493.41;;;20.98;39.09
46710;BME280;32442;51.514;-0.178;2023-02-02T11:39:40;102484.13;;;20.98;38.83
46710;BME280;32442;51.514;-0.178;2023-02-02T11:44:38;102483.81;;;20.99;38.91
46710;BME280;32442;51.514;-0.178;2023-02-02T11:47:05;102485.53;;;21.00;38.60
46710;BME280;32442;51.514;-0.178;2023-02-02T11:49:36;102482.16;;;20.98;38.93
46710;BME280;32442;51.514;-0.178;2023-02-02T11:52:05;102481.88;;;21.00;39.08
46710;BME280;32442;51.514;-0.178;2023-02-02T12:00:28;102481.84;;;20.95;39.12
46710;BME280;32442;51.514;-0.178;2023-02-02T12:02:56;102468.59;;;20.90;39.17
46710;BME280;32442;51.514;-0.178;2023-02-02T12:05:31;102469.75;;;20.89;38.75
46710;BME280;32442;51.514;-0.178;2023-02-02T12:07:58;102468.31;;;20.86;39.06
46710;BME280;32442;51.514;-0.178;2023-02-02T12:10:27;102459.34;;;20.84;39.15
46710;BME280;32442;51.514;-0.178;2023-02-02T12:13:04;102461.31;;;20.84;38.83
46710;BME280;32442;51.514;-0.178;2023-02-02T12:18:07;102452.28;;;20.82;38.75
46710;BME280;32442;51.514;-0.178;2023-02-02T12:20:45;102463.78;;;20.80;38.87
46710;BME280;32442;51.514;-0.178;2023-02-02T12:28:19;102443.56;;;20.78;39.16
46710;BME280;32442;51.514;-0.178;2023-02-02T12:43:26;102419.34;;;20.67;39.27
46710;BME280;32442;51.514;-0.178;2023-02-02T12:46:01;102419.63;;;20.66;38.95
46710;BME280;32442;51.514;-0.178;2023-02-02T12:51:05;102430.03;;;20.65;39.16
46710;BME280;32442;51.514;-0.178;2023-02-02T13:03:44;102426.00;;;20.51;39.28
46710;BME280;32442;51.514;-0.178;2023-02-02T13:11:17;102414.47;;;20.42;39.42
46710;BME280;32442;51.514;-0.178;2023-02-02T13:13:49;102413.03;;;20.40;39.54
46710;BME280;32442;51.514;-0.178;2023-02-02T13:16:16;102407.69;;;20.38;39.42
46710;BME280;32442;51.514;-0.178;2023-02-02T13:18:46;102410.50;;;20.38;39.58
46710;BME280;32442;51.514;-0.178;2023-02-02T13:21:17;102418.94;;;20.38;39.40
46710;BME280;32442;51.514;-0.178;2023-02-02T13:26:17;102414.97;;;20.34;39.31
46710;BME280;32442;51.514;-0.178;2023-02-02T13:31:16;102422.25;;;20.30;39.61
46710;BME280;32442;51.514;-0.178;2023-02-02T13:33:45;102416.63;;;20.30;39.72
46710;BME280;32442;51.514;-0.178;2023-02-02T13:36:17;102425.25;;;20.24;39.51
46710;BME280;32442;51.514;-0.178;2023-02-02T13:38:53;102418.78;;;20.23;39.71
46710;BME280;32442;51.514;-0.178;2023-02-02T13:41:21;102412.28;;;20.18;39.79
46710;BME280;32442;51.514;-0.178;2023-02-02T13:43:54;102413.69;;;20.15;39.92
46710;BME280;32442;51.514;-0.178;2023-02-02T13:48:54;102424.06;;;20.15;39.93
46710;BME280;32442;51.514;-0.178;2023-02-02T13:58:54;102419.53;;;20.09;39.78
46710;BME280;32442;51.514;-0.178;2023-02-02T14:01:29;102422.88;;;20.06;39.69
46710;BME280;32442;51.514;-0.178;2023-02-02T14:03:57;102423.47;;;20.08;39.76
46710;BME280;32442;51.514;-0.178;2023-02-02T14:06:26;102421.72;;;20.02;39.73
46710;BME280;32442;51.514;-0.178;2023-02-02T14:08:55;102422.28;;;20.04;40.10
46710;BME280;32442;51.514;-0.178;2023-02-02T14:11:28;102422.84;;;20.01;39.77
46710;BME280;32442;51.514;-0.178;2023-02-02T14:19:00;102418.59;;;19.93;39.90
46710;BME280;32442;51.514;-0.178;2023-02-02T14:29:01;102405.91;;;19.90;40.01
46710;BME280;32442;51.514;-0.178;2023-02-02T14:31:39;102408.41;;;19.87;40.08
46710;BME280;32442;51.514;-0.178;2023-02-02T14:36:38;102411.78;;;19.84;40.21
46710;BME280;32442;51.514;-0.178;2023-02-02T14:39:09;102410.66;;;19.85;40.08
46710;BME280;32442;51.514;-0.178;2023-02-02T14:44:16;102414.28;;;19.80;40.58
46710;BME280;32442;51.514;-0.178;2023-02-02T14:46:43;102405.53;;;19.77;40.20
46710;BME280;32442;51.514;-0.178;2023-02-02T14:49:15;102407.78;;;19.75;40.19
46710;BME280;32442;51.514;-0.178;2023-02-02T14:51:45;102406.94;;;19.74;40.26
46710;BME280;32442;51.514;-0.178;2023-02-02T14:56:45;102407.47;;;19.71;40.59
46710;BME280;32442;51.514;-0.178;2023-02-02T14:59:16;102408.28;;;19.67;40.38
46710;BME280;32442;51.514;-0.178;2023-02-02T15:06:47;102414.09;;;19.60;40.71
46710;BME280;32442;51.514;-0.178;2023-02-02T15:14:15;102416.84;;;19.55;40.70
46710;BME280;32442;51.514;-0.178;2023-02-02T15:16:45;102415.13;;;19.54;40.20
46710;BME280;32442;51.514;-0.178;2023-02-02T15:19:15;102423.25;;;19.50;40.34
46710;BME280;32442;51.514;-0.178;2023-02-02T15:21:46;102425.19;;;19.50;40.55
46710;BME280;32442;51.514;-0.178;2023-02-02T15:26:46;102424.03;;;19.46;40.44
46710;BME280;32442;51.514;-0.178;2023-02-02T15:29:18;102422.13;;;19.51;40.68
46710;BME280;32442;51.514;-0.178;2023-02-02T15:31:50;102440.84;;;19.46;40.97
46710;BME280;32442;51.514;-0.178;2023-02-02T15:34:22;102433.09;;;19.53;41.01
46710;BME280;32442;51.514;-0.178;2023-02-02T15:36:51;102439.81;;;19.52;41.11
46710;BME280;32442;51.514;-0.178;2023-02-02T15:41:50;102448.41;;;19.45;40.71
46710;BME280;32442;51.514;-0.178;2023-02-02T15:44:42;102445.28;;;19.42;40.73
46710;BME280;32442;51.514;-0.178;2023-02-02T15:47:11;102452.25;;;19.39;40.55
46710;BME280;32442;51.514;-0.178;2023-02-02T15:49:40;102453.38;;;19.38;40.78
46710;BME280;32442;51.514;-0.178;2023-02-02T15:54:47;102472.13;;;19.38;40.48
46710;BME280;32442;51.514;-0.178;2023-02-02T15:59:45;102451.91;;;19.36;40.82